Wappingers Falls, New York
Current Conditions -  °F | °C
As of 9:53 PM on Friday 24 Oct 2014 (Local Time) from KPOU Reporting Station
Clear Clear  
Wind Chill: 47°   Ceiling: Unl
Heat Index: 47°   Visibility: 10mi
Dew Point: 44°   Wind: 0mph
Humidity: 90%   Direction: NA
Pressure: 29.84"   Gusts: NA
Location:  41.6°N, 73.91°W
Report Text: KPOU 250153Z AUTO 00000KT 10SM CLR 08/07 A2984 RMK AO2 SLP101 T00830067 TSNO
Loading
Personal Weather Stations






























Interactive Weather Map New forecast layout! Learn more

10-Day Weather Forecast

Advertisements
Track Severe Weather on mobile